Strona główna
METAR-TAF:

METAR-TAF

Lotnisko :

Elsenborn

Bütgenbach, Belgia

Szerokość geograficzna: 50-28N, Długość geograficzna: 006-11E, wysokość: 564 m

Aktualna obserwacja pogody

Raport powstał 24 minut temu, godzina 17:25 UTC
Wiatr 5 kt od zachód
Temperatura 19°C
Wilgotność 83%
Ciśnienie 1015 hPa
Widzialność 10 km lub więcej

METAR: EBLB 201725Z AUTO 27005KT 9999 FEW054/// 19/16 Q1015 BLU

czas: 19:49 (17:49 UTC)


TAF: brakujący

Obserwacja i prognoza pogody dla ponad 4000 lotnisk (raport METAR i TAF).

Dostępne stacje oznaczono żółtymi i czerwonymi punktami na mapie.

Najedź kursorem aby zobaczyć nazwę stacji.

Kliknij aby zobaczyć obserwacje i prognozy pogody.

Aby zmienić mapę: kliknij na zielony przycisk z czarnym krzyżykiem, aby powiększyć; na zielony przycisk z myślnikiem, aby pomniejszyć; na zielone strzałki, aby przejść do map sąsiednich.


METAR-TAF: